createdAt,value
2023-01-11T00:02:05.116Z,29.90
2023-01-11T00:07:09.017Z,33.30
2023-01-11T00:12:14.647Z,29.20
2023-01-11T00:17:18.272Z,32.20
2023-01-11T00:22:25.883Z,30.60
2023-01-11T00:27:30.050Z,31.90
2023-01-11T00:32:36.414Z,27.90
2023-01-11T00:37:40.979Z,32.10
2023-01-11T00:43:04.258Z,32.90
2023-01-11T00:48:12.019Z,39.20
2023-01-11T00:53:18.609Z,30.60
2023-01-11T00:58:22.299Z,29.00
2023-01-11T01:03:25.926Z,35.00
2023-01-11T01:08:29.629Z,33.80
2023-01-11T01:13:51.898Z,28.70
2023-01-11T01:18:57.490Z,33.00
2023-01-11T01:24:02.651Z,33.80
2023-01-11T01:29:06.894Z,29.40
2023-01-11T01:34:11.551Z,29.70
2023-01-11T01:39:16.177Z,26.90
2023-01-11T01:45:11.289Z,27.50
2023-01-11T01:50:23.861Z,26.30
2023-01-11T01:55:35.917Z,19.50
2023-01-11T02:00:41.777Z,24.20
2023-01-11T02:05:46.089Z,20.50
2023-01-11T02:10:51.290Z,21.50
2023-01-11T02:16:09.336Z,24.10
2023-01-11T02:21:32.091Z,23.10
2023-01-11T02:26:56.622Z,25.90
2023-01-11T02:32:42.141Z,23.50
2023-01-11T02:38:17.685Z,24.20
2023-01-11T02:44:08.618Z,26.30
2023-01-11T02:49:45.522Z,21.70
2023-01-11T02:54:54.815Z,19.30
2023-01-11T02:59:59.545Z,23.00
2023-01-11T03:05:12.259Z,19.10
2023-01-11T03:11:37.732Z,17.60
2023-01-11T03:33:09.777Z,15.70
2023-01-11T03:38:36.977Z,17.10
2023-01-11T03:43:41.647Z,23.20
2023-01-11T03:48:54.801Z,29.00
2023-01-11T03:54:02.391Z,32.70
2023-01-11T03:59:06.449Z,29.80
2023-01-11T04:04:10.476Z,27.40
2023-01-11T04:09:15.273Z,30.60
2023-01-11T04:14:19.037Z,27.00
2023-01-11T04:19:23.450Z,23.40
2023-01-11T04:24:27.530Z,18.10
2023-01-11T04:29:31.245Z,18.00
2023-01-11T04:34:35.896Z,16.60
2023-01-11T04:39:39.963Z,18.60
2023-01-11T04:44:44.590Z,15.60
2023-01-11T04:49:49.104Z,12.60
2023-01-11T04:54:54.230Z,13.10
2023-01-11T04:59:57.932Z,14.60
2023-01-11T05:05:01.673Z,11.60
2023-01-11T05:10:07.030Z,14.80
2023-01-11T05:15:10.844Z,14.30
2023-01-11T05:20:14.494Z,12.20
2023-01-11T05:25:18.823Z,11.10
2023-01-11T05:30:22.456Z,14.00
2023-01-11T05:35:26.180Z,11.80
2023-01-11T05:40:30.323Z,13.80
2023-01-11T05:45:34.120Z,12.30
2023-01-11T05:50:38.370Z,15.60
2023-01-11T05:55:56.247Z,12.80
2023-01-11T06:01:00.492Z,13.00
2023-01-11T06:06:05.799Z,11.20
2023-01-11T06:11:10.074Z,11.80
2023-01-11T06:16:19.301Z,9.90
2023-01-11T06:21:24.840Z,9.30
2023-01-11T06:26:32.123Z,12.40
2023-01-11T06:31:35.815Z,10.70
2023-01-11T06:36:41.207Z,10.70
2023-01-11T06:41:46.255Z,11.10
2023-01-11T06:46:50.985Z,10.20
2023-01-11T06:51:55.305Z,11.70
2023-01-11T06:56:59.333Z,17.20
2023-01-11T07:02:02.994Z,12.60
2023-01-11T07:07:09.650Z,12.00
2023-01-11T07:12:13.520Z,9.90
2023-01-11T07:17:20.265Z,10.70
2023-01-11T07:22:24.016Z,8.00
2023-01-11T07:27:28.478Z,8.40
2023-01-11T07:32:32.783Z,8.00
2023-01-11T07:37:38.581Z,11.60
2023-01-11T07:43:06.619Z,9.50
2023-01-11T07:48:11.191Z,8.80
2023-01-11T07:53:16.553Z,11.50
2023-01-11T07:58:20.719Z,9.00
2023-01-11T08:03:24.917Z,10.00
2023-01-11T08:08:29.346Z,13.50
2023-01-11T08:13:52.153Z,9.70
2023-01-11T08:18:55.897Z,12.30
2023-01-11T08:24:00.483Z,9.20
2023-01-11T08:29:04.444Z,12.00
2023-01-11T08:34:08.913Z,8.20
2023-01-11T08:39:14.274Z,9.90
2023-01-11T08:44:29.016Z,8.30
2023-01-11T08:49:32.871Z,6.80
2023-01-11T08:54:37.361Z,10.80
2023-01-11T08:59:41.209Z,12.90
2023-01-11T09:04:44.892Z,12.10
2023-01-11T09:09:49.444Z,9.90
2023-01-11T09:14:54.506Z,7.40
2023-01-11T09:19:58.892Z,10.70
2023-01-11T09:25:04.249Z,6.00
2023-01-11T09:30:09.950Z,13.10
2023-01-11T09:35:16.132Z,9.40
2023-01-11T09:40:24.612Z,9.40
2023-01-11T09:45:33.050Z,9.40
2023-01-11T09:50:43.654Z,7.10
2023-01-11T09:55:52.403Z,5.90
2023-01-11T10:01:03.586Z,6.60
2023-01-11T10:06:55.320Z,9.10
2023-01-11T10:24:05.570Z,8.20
2023-01-11T10:29:36.100Z,7.80
2023-01-11T10:35:14.408Z,7.00
2023-01-11T10:40:41.054Z,8.90
2023-01-11T10:45:55.049Z,7.90
2023-01-11T10:51:06.315Z,12.30
2023-01-11T10:57:02.627Z,10.00
2023-01-11T11:02:34.659Z,6.50
2023-01-11T11:08:13.731Z,9.70
2023-01-11T11:13:43.428Z,6.40
2023-01-11T11:18:47.350Z,10.60
2023-01-11T11:24:01.475Z,10.00
2023-01-11T11:29:08.971Z,6.60
2023-01-11T11:34:19.520Z,7.30
2023-01-11T11:39:30.848Z,8.80
2023-01-11T11:44:35.819Z,9.50
2023-01-11T11:49:41.299Z,7.80
2023-01-11T11:55:14.065Z,6.50
2023-01-11T12:05:24.951Z,9.40
2023-01-11T12:10:30.975Z,7.80
2023-01-11T12:15:35.262Z,6.30
2023-01-11T12:20:41.665Z,25.30
2023-01-11T12:26:05.940Z,10.60
2023-01-11T12:31:18.318Z,9.50
2023-01-11T12:37:09.468Z,11.20
2023-01-11T12:42:34.704Z,8.60
2023-01-11T12:47:44.893Z,9.50
2023-01-11T12:53:18.056Z,5.30
2023-01-11T12:58:27.024Z,7.90
2023-01-11T13:04:12.329Z,8.30
2023-01-11T13:09:56.532Z,7.70
2023-01-11T13:15:14.630Z,14.60
2023-01-11T13:20:59.245Z,6.10
2023-01-11T13:26:25.016Z,6.70
2023-01-11T13:31:30.089Z,5.90
2023-01-11T13:36:41.511Z,5.80
2023-01-11T13:41:53.117Z,5.60
2023-01-11T13:47:23.900Z,7.70
2023-01-11T13:52:44.859Z,7.30
2023-01-11T13:58:12.289Z,9.10
2023-01-11T14:03:47.050Z,12.10
2023-01-11T14:08:54.060Z,8.60
2023-01-11T14:14:22.867Z,7.50
2023-01-11T14:20:11.989Z,9.10
2023-01-11T14:25:21.323Z,9.50
2023-01-11T14:30:37.365Z,9.50
2023-01-11T14:36:20.113Z,9.60
2023-01-11T14:41:39.653Z,15.30
2023-01-11T14:47:36.979Z,7.60
2023-01-11T14:52:41.935Z,7.30
2023-01-11T14:58:03.492Z,9.90
2023-01-11T15:03:41.343Z,6.70
2023-01-11T15:09:05.279Z,8.90
2023-01-11T15:14:37.904Z,10.00
2023-01-11T15:19:55.466Z,10.00
2023-01-11T15:25:02.240Z,9.40
2023-01-11T15:30:28.806Z,8.90
2023-01-11T15:35:34.347Z,9.50
2023-01-11T15:40:42.871Z,7.60
2023-01-11T15:46:25.058Z,12.70
2023-01-11T15:52:07.750Z,11.10
2023-01-11T15:57:24.732Z,14.40
2023-01-11T16:02:35.436Z,15.00
2023-01-11T16:07:52.185Z,10.50
2023-01-11T16:13:16.322Z,11.70
2023-01-11T16:18:26.872Z,17.20
2023-01-11T16:23:33.148Z,11.50
2023-01-11T16:28:37.679Z,13.80
2023-01-11T16:33:42.181Z,16.10
2023-01-11T16:39:08.292Z,13.80
2023-01-11T16:44:48.090Z,10.80
2023-01-11T16:50:30.525Z,11.70
2023-01-11T16:55:40.477Z,8.80
2023-01-11T17:01:17.005Z,17.10
2023-01-11T17:06:25.021Z,13.50
2023-01-11T17:11:45.701Z,9.70
2023-01-11T17:16:55.656Z,8.20
2023-01-11T17:22:41.158Z,8.20
2023-01-11T17:28:19.139Z,6.40
2023-01-11T17:33:39.354Z,10.50
2023-01-11T17:38:45.257Z,10.80
2023-01-11T17:44:11.341Z,14.80
2023-01-11T17:49:23.557Z,13.10
2023-01-11T17:54:27.940Z,8.70
2023-01-11T17:59:32.178Z,8.90
2023-01-11T18:04:41.443Z,10.60
2023-01-11T18:10:06.979Z,16.30
2023-01-11T18:15:21.790Z,12.60
2023-01-11T18:20:38.228Z,10.00
2023-01-11T18:25:46.548Z,10.30
2023-01-11T18:36:05.063Z,12.70
2023-01-11T18:41:29.181Z,14.20
2023-01-11T18:46:33.387Z,12.70
2023-01-11T18:51:45.604Z,9.20
2023-01-11T18:56:53.207Z,9.80
2023-01-11T19:02:16.047Z,10.80
2023-01-11T19:07:25.377Z,7.40
2023-01-11T19:12:30.911Z,7.00
2023-01-11T19:17:35.531Z,6.60
2023-01-11T19:22:41.538Z,6.60
2023-01-11T19:27:47.574Z,9.00
2023-01-11T19:32:57.724Z,9.00
2023-01-11T19:38:03.025Z,6.80
2023-01-11T19:43:14.947Z,9.60
2023-01-11T19:48:19.172Z,8.20
2023-01-11T19:53:28.037Z,7.70
2023-01-11T20:03:45.219Z,7.20
2023-01-11T20:08:54.890Z,8.40
2023-01-11T20:14:05.174Z,7.30
2023-01-11T20:19:16.425Z,10.10
2023-01-11T20:24:21.088Z,13.10
2023-01-11T20:29:25.825Z,11.20
2023-01-11T20:34:36.052Z,10.10
2023-01-11T20:39:49.815Z,8.70
2023-01-11T20:44:57.737Z,8.10
2023-01-11T20:50:07.231Z,9.30
2023-01-11T20:55:16.622Z,9.50
2023-01-11T21:00:30.131Z,8.10
2023-01-11T21:05:37.694Z,8.50
2023-01-11T21:10:41.515Z,8.70
2023-01-11T21:15:45.495Z,10.30
2023-01-11T21:20:50.344Z,10.80
2023-01-11T21:25:57.529Z,10.60
2023-01-11T21:31:05.845Z,11.20
2023-01-11T21:36:13.524Z,8.90
2023-01-11T21:41:40.311Z,14.10
2023-01-11T21:46:48.694Z,11.50
2023-01-11T21:51:53.517Z,9.70
2023-01-11T21:56:57.992Z,9.40
2023-01-11T22:02:01.698Z,10.10
2023-01-11T22:07:06.186Z,10.10
2023-01-11T22:12:10.055Z,12.10
2023-01-11T22:17:13.908Z,11.30
2023-01-11T22:22:17.769Z,12.80
2023-01-11T22:27:24.114Z,13.10
2023-01-11T22:32:31.532Z,12.70
2023-01-11T22:37:35.967Z,12.60
2023-01-11T22:42:40.106Z,12.20
2023-01-11T22:47:44.556Z,11.10
2023-01-11T22:52:48.678Z,11.30
2023-01-11T22:57:52.505Z,10.50
2023-01-11T23:02:57.603Z,9.70
2023-01-11T23:08:01.532Z,8.90
2023-01-11T23:13:25.444Z,8.60
2023-01-11T23:18:29.676Z,10.10
2023-01-11T23:23:33.419Z,14.60
2023-01-11T23:28:37.218Z,11.80
2023-01-11T23:33:40.955Z,12.30
2023-01-11T23:38:46.251Z,14.30
2023-01-11T23:43:52.485Z,11.50
2023-01-11T23:49:02.906Z,12.60
2023-01-11T23:54:07.208Z,11.80
2023-01-11T23:59:11.103Z,11.90
